Time;durP1;ratioP1;P1;durP2;ratioP2;P2;SDS_P1;SDS_P2;PMS_P1;PMS_P2;Temp;Humidity;BMP_temperature;BMP_pressure;BME280_temperature;BME280_humidity;BME280_pressure;Samples;Min_cycle;Max_cycle;Signal;HPM_P1;HPM_P2
2021/11/16 00:00:07;;;;;;;41.83;15.48;;;;;;;3.04;100.00;95831.09;5022295;28;20044;-77
2021/11/16 00:02:53;;;;;;;43.13;14.70;;;;;;;2.85;100.00;95828.44;5025303;28;20057;-76
2021/11/16 00:05:18;;;;;;;39.10;15.90;;;;;;;3.03;100.00;95819.09;5034791;28;20045;-77
2021/11/16 00:07:44;;;;;;;34.92;14.98;;;;;;;3.16;100.00;95833.78;5034102;28;20049;-77
2021/11/16 00:10:10;;;;;;;38.85;14.57;;;;;;;3.11;100.00;95826.66;5035031;28;20379;-77
2021/11/16 00:12:37;;;;;;;37.30;15.52;;;;;;;3.11;100.00;95831.84;5034481;28;20045;-77
2021/11/16 00:15:04;;;;;;;36.53;15.27;;;;;;;3.05;100.00;95827.50;5033991;28;20045;-77
2021/11/16 00:17:29;;;;;;;36.35;14.35;;;;;;;2.98;100.00;95821.56;5050814;28;20095;-77
2021/11/16 00:19:55;;;;;;;40.78;15.23;;;;;;;2.82;100.00;95828.09;5022569;28;20896;-77
2021/11/16 00:22:21;;;;;;;39.72;15.90;;;;;;;2.98;100.00;95821.56;5032876;28;20056;-77
2021/11/16 00:25:09;;;;;;;41.28;14.52;;;;;;;3.03;100.00;95829.50;5033851;28;20122;-77
2021/11/16 00:27:35;;;;;;;41.83;14.73;;;;;;;3.03;100.00;95829.50;5034758;28;20788;-77
2021/11/16 00:30:04;;;;;;;35.75;14.98;;;;;;;3.05;100.00;95827.50;5035091;28;20084;-77
2021/11/16 00:32:29;;;;;;;35.63;14.43;;;;;;;2.93;100.00;95830.78;5033681;28;20049;-77
2021/11/16 00:34:55;;;;;;;35.25;14.95;;;;;;;2.97;100.00;95831.16;5033505;28;20077;-77
2021/11/16 00:37:25;;;;;;;34.55;14.38;;;;;;;2.80;100.00;95830.88;5034935;28;20045;-77
2021/11/16 00:40:00;;;;;;;38.70;15.23;;;;;;;2.75;100.00;95825.53;5028763;28;20048;-77
2021/11/16 00:42:26;;;;;;;;;;;;;;;2.67;100.00;95825.78;5031134;28;20863;-78
2021/11/16 00:44:52;;;;;;;39.63;13.93;;;;;;;2.67;100.00;95820.59;5032875;28;20768;-77
2021/11/16 00:47:18;;;;;;;35.33;14.13;;;;;;;2.78;100.00;95818.09;5033598;28;20049;-78
2021/11/16 00:49:46;;;;;;;34.95;14.88;;;;;;;2.87;100.00;95818.63;5034414;28;20495;-77
2021/11/16 00:52:11;;;;;;;36.67;14.52;;;;;;;2.85;100.00;95823.25;5032875;28;20069;-77
2021/11/16 00:54:38;;;;;;;36.53;14.05;;;;;;;2.87;100.00;95826.44;5033089;28;20057;-77
2021/11/16 00:57:04;;;;;;;34.38;13.63;;;;;;;2.81;100.00;95822.09;5032198;28;20049;-77
2021/11/16 00:59:31;;;;;;;33.50;12.60;;;;;;;2.88;100.00;95835.81;5033235;28;20068;-77
2021/11/16 01:01:57;;;;;;;35.80;14.27;;;;;;;2.90;100.00;95841.63;5026026;28;20050;-76
2021/11/16 01:04:26;;;;;;;35.05;13.40;;;;;;;2.88;100.00;95838.44;5033611;28;20045;-76
2021/11/16 01:06:51;;;;;;;31.48;13.18;;;;;;;2.82;100.00;95828.88;5031635;28;20079;-77
2021/11/16 01:09:17;;;;;;;35.28;13.75;;;;;;;2.78;100.00;95827.72;5032118;28;20546;-77
2021/11/16 01:11:43;;;;;;;36.03;12.95;;;;;;;2.75;100.00;95822.94;5034462;28;20042;-77
2021/11/16 01:14:08;;;;;;;36.58;13.32;;;;;;;2.66;100.00;95824.19;5031139;28;20045;-77
2021/11/16 01:16:34;;;;;;;31.95;12.32;;;;;;;2.76;100.00;95829.75;5026065;28;20041;-77
2021/11/16 01:19:02;;;;;;;38.80;14.52;;;;;;;2.73;100.00;95833.56;5032901;28;20052;-77
2021/11/16 01:21:27;;;;;;;37.53;14.07;;;;;;;2.73;100.00;95840.53;5029912;28;20046;-76
2021/11/16 01:23:53;;;;;;;42.63;13.68;;;;;;;2.67;100.00;95825.78;5033774;28;20048;-77
2021/11/16 01:26:18;;;;;;;36.92;13.65;;;;;;;2.58;100.00;95822.66;5026422;28;20042;-77
2021/11/16 01:28:44;;;;;;;36.58;13.68;;;;;;;2.52;100.00;95829.50;5034377;28;20045;-78
2021/11/16 01:31:10;;;;;;;41.47;14.40;;;;;;;2.64;100.00;95826.22;5033540;28;20095;-77
2021/11/16 01:33:52;;;;;;;37.50;14.18;;;;;;;2.60;100.00;95831.84;5033831;28;20041;-76
2021/11/16 01:36:18;;;;;;;38.25;14.00;;;;;;;2.65;100.00;95833.03;5039807;28;20583;-77
2021/11/16 01:38:44;;;;;;;39.80;13.88;;;;;;;2.62;100.00;95829.03;5031765;28;20038;-77
2021/11/16 01:41:11;;;;;;;33.28;13.10;;;;;;;2.65;100.00;95838.22;5031125;28;20523;-77
2021/11/16 01:43:37;;;;;;;50.45;13.75;;;;;;;2.62;100.00;95834.22;5032693;28;20102;-77
2021/11/16 01:46:09;;;;;;;35.75;12.75;;;;;;;2.62;100.00;95836.03;5033297;28;20052;-77
2021/11/16 01:48:36;;;;;;;43.47;14.02;;;;;;;2.58;100.00;95828.63;5033067;28;20098;-76
2021/11/16 01:51:02;;;;;;;39.40;13.82;;;;;;;2.53;100.00;95820.69;5034381;28;20618;-77
2021/11/16 01:53:29;;;;;;;42.55;14.13;;;;;;;2.54;100.00;95832.69;5030980;28;20052;-77
2021/11/16 01:55:56;;;;;;;49.88;14.48;;;;;;;2.57;100.00;95834.88;5024580;28;20048;-77
2021/11/16 01:58:21;;;;;;;41.05;12.90;;;;;;;2.51;100.00;95827.09;5029607;28;20046;-77
2021/11/16 02:00:47;;;;;;;41.08;13.57;;;;;;;2.49;100.00;95829.91;5030273;28;20044;-77
2021/11/16 02:03:14;;;;;;;38.08;14.63;;;;;;;2.47;100.00;95829.34;5033278;28;20049;-77
2021/11/16 02:06:12;;;;;;;39.50;13.50;;;;;;;2.58;100.00;95828.63;5029306;28;20044;-77
2021/11/16 02:08:38;;;;;;;36.25;13.68;;;;;;;2.55;100.00;95823.88;5013600;28;20046;-77
2021/11/16 02:11:04;;;;;;;42.28;14.88;;;;;;;2.55;100.00;95813.47;5029623;28;20064;-77
2021/11/16 02:13:30;;;;;;;38.15;14.00;;;;;;;2.44;100.00;95814.16;5031654;28;20076;-79
2021/11/16 02:15:56;;;;;;;44.88;14.30;;;;;;;2.29;100.00;95809.25;5025194;28;20300;-78
2021/11/16 02:18:22;;;;;;;47.03;15.30;;;;;;;2.48;100.00;95812.72;5032546;28;20053;-78
2021/11/16 02:20:49;;;;;;;43.60;15.60;;;;;;;2.60;100.00;95816.25;5025786;28;20042;-77
2021/11/16 02:23:17;;;;;;;43.08;14.30;;;;;;;2.66;100.00;95813.81;5032705;28;20423;-77
2021/11/16 02:25:45;;;;;;;39.25;13.65;;;;;;;2.68;100.00;95822.19;5020766;28;20041;-78
2021/11/16 02:28:11;;;;;;;40.20;14.25;;;;;;;2.63;100.00;95815.03;5031431;28;20041;-77
2021/11/16 02:30:37;;;;;;;46.33;15.35;;;;;;;2.67;100.00;95812.81;5028494;28;20053;-77
2021/11/16 02:33:03;;;;;;;40.47;14.23;;;;;;;2.70;100.00;95822.78;5032167;28;20045;-77
2021/11/16 02:35:28;;;;;;;44.70;14.63;;;;;;;2.70;100.00;95804.56;5031541;28;20041;-78
2021/11/16 02:37:55;;;;;;;40.58;14.60;;;;;;;2.64;100.00;95805.44;5031359;28;20838;-78
2021/11/16 02:40:22;;;;;;;45.78;15.68;;;;;;;2.66;100.00;95813.81;5031850;28;20045;-78
2021/11/16 02:42:49;;;;;;;44.75;15.20;;;;;;;2.62;100.00;95813.44;5024850;28;20046;-78
2021/11/16 02:45:17;;;;;;;43.65;15.25;;;;;;;2.67;100.00;95810.19;5026110;28;20044;-78
2021/11/16 02:47:43;;;;;;;42.67;14.57;;;;;;;2.75;100.00;95822.94;5030332;28;20124;-78
2021/11/16 02:50:09;;;;;;;45.92;16.17;;;;;;;2.78;100.00;95827.72;5031651;28;20549;-77
2021/11/16 02:52:35;;;;;;;43.97;15.27;;;;;;;2.72;100.00;95823.38;5031252;28;20180;-78
2021/11/16 02:55:02;;;;;;;49.55;15.73;;;;;;;2.69;100.00;95821.19;5031394;28;20107;-77
2021/11/16 02:57:27;;;;;;;45.85;15.20;;;;;;;2.72;100.00;95828.56;5029129;28;20559;-77
2021/11/16 02:59:53;;;;;;;44.13;14.18;;;;;;;2.68;100.00;95822.97;5032318;28;20045;-77
2021/11/16 03:02:19;;;;;;;39.40;13.32;;;;;;;2.66;100.00;95813.81;5030821;28;20041;-77
2021/11/16 03:04:46;;;;;;;40.10;13.55;;;;;;;2.58;100.00;95817.47;5022915;28;20041;-77
2021/11/16 03:07:30;;;;;;;41.22;13.80;;;;;;;2.77;100.00;95826.13;5030656;28;20144;-77
2021/11/16 03:09:56;;;;;;;44.20;14.80;;;;;;;2.77;100.00;95826.13;5032998;28;20064;-76
2021/11/16 03:12:25;;;;;;;36.13;12.88;;;;;;;2.67;100.00;95818.00;5032422;28;20776;-77
2021/11/16 03:14:51;;;;;;;38.90;13.60;;;;;;;2.67;100.00;95820.59;5029962;28;20047;-77
2021/11/16 03:17:16;;;;;;;37.55;12.65;;;;;;;2.75;100.00;95822.94;5032148;28;20554;-77
2021/11/16 03:19:42;;;;;;;41.88;14.13;;;;;;;2.79;100.00;95818.91;5030838;28;20491;-77
2021/11/16 03:22:08;;;;;;;37.92;13.30;;;;;;;2.82;100.00;95813.28;5032450;28;20542;-77
2021/11/16 03:24:35;;;;;;;31.25;12.48;;;;;;;2.88;100.00;95822.03;5025765;28;20041;-77
2021/11/16 03:27:08;;;;;;;36.78;12.23;;;;;;;2.86;100.00;95835.25;5030910;28;20046;-76
2021/11/16 03:29:37;;;;;;;34.55;13.30;;;;;;;2.79;100.00;95834.50;5033126;28;20041;-77
2021/11/16 03:32:08;;;;;;;38.85;13.05;;;;;;;2.68;100.00;95822.19;5035278;28;20046;-77
2021/11/16 03:34:34;;;;;;;40.53;13.55;;;;;;;2.71;100.00;95826.97;5035436;28;20050;-77
2021/11/16 03:37:01;;;;;;;33.67;11.65;;;;;;;2.77;100.00;95831.31;5035610;28;20047;-76
2021/11/16 03:39:27;;;;;;;39.35;12.13;;;;;;;2.72;100.00;95825.97;5036172;28;20052;-76
2021/11/16 03:41:53;;;;;;;37.20;12.25;;;;;;;2.72;100.00;95823.38;5035746;28;20041;-77
2021/11/16 03:44:19;;;;;;;38.90;12.65;;;;;;;2.78;100.00;95827.72;5030548;28;20041;-77
2021/11/16 03:46:45;;;;;;;35.00;12.65;;;;;;;2.65;100.00;95833.03;5035781;28;20099;-77
2021/11/16 03:49:12;;;;;;;37.17;13.02;;;;;;;2.76;100.00;95835.72;5036156;28;20045;-76
2021/11/16 03:51:40;;;;;;;36.72;13.15;;;;;;;2.77;100.00;95841.72;5034590;28;20099;-77
2021/11/16 03:54:07;;;;;;;36.13;12.30;;;;;;;2.76;100.00;95840.13;5033587;28;20068;-77
2021/11/16 03:56:33;;;;;;;35.58;12.65;;;;;;;2.76;100.00;95834.94;5032780;28;20041;-77
2021/11/16 03:58:59;;;;;;;39.05;12.98;;;;;;;2.80;100.00;95836.09;5036265;28;20060;-77
2021/11/16 04:01:25;;;;;;;46.60;13.30;;;;;;;2.71;100.00;95829.56;5033807;28;20116;-77
2021/11/16 04:03:51;;;;;;;39.67;13.32;;;;;;;2.79;100.00;95826.72;5030891;28;20065;-77
2021/11/16 04:06:17;;;;;;;37.80;12.38;;;;;;;2.70;100.00;95825.38;5023639;28;20049;-77
2021/11/16 04:08:43;;;;;;;38.90;12.25;;;;;;;2.79;100.00;95837.09;5035417;28;20106;-77
2021/11/16 04:11:09;;;;;;;46.05;13.18;;;;;;;2.68;100.00;95832.59;5036531;28;20477;-78
2021/11/16 04:13:34;;;;;;;42.40;14.60;;;;;;;2.81;100.00;95837.69;5034172;28;20045;-76
2021/11/16 04:16:01;;;;;;;44.00;13.60;;;;;;;2.90;100.00;95836.44;5034903;28;20087;-77
2021/11/16 04:18:27;;;;;;;45.72;13.80;;;;;;;2.87;100.00;95831.63;5034773;28;20111;-77
2021/11/16 04:20:55;;;;;;;38.05;12.20;;;;;;;2.91;100.00;95837.22;5034734;28;20041;-77
2021/11/16 04:23:22;;;;;;;37.13;12.57;;;;;;;2.93;100.00;95825.59;5032858;28;20478;-77
2021/11/16 04:25:49;;;;;;;35.50;12.35;;;;;;;2.87;100.00;95826.44;5033962;28;20037;-77
2021/11/16 04:28:15;;;;;;;39.42;12.68;;;;;;;2.92;100.00;95834.41;5034053;28;20690;-77
2021/11/16 04:30:43;;;;;;;41.15;14.00;;;;;;;2.86;100.00;95837.84;5034325;28;20422;-76
2021/11/16 04:33:09;;;;;;;42.42;13.43;;;;;;;2.88;100.00;95828.03;5034079;28;20046;-76
2021/11/16 04:35:35;;;;;;;47.65;14.32;;;;;;;2.76;100.00;95834.94;5034248;28;20037;-77
2021/11/16 04:38:03;;;;;;;42.15;14.38;;;;;;;2.85;100.00;95838.84;5022177;28;20052;-77
2021/11/16 04:40:36;;;;;;;39.03;13.52;;;;;;;2.98;100.00;95847.56;5017400;28;20087;-77
2021/11/16 04:43:07;;;;;;;39.45;12.68;;;;;;;2.97;100.00;95846.75;5032896;28;20045;-77
2021/11/16 04:45:34;;;;;;;41.15;13.82;;;;;;;2.91;100.00;95839.81;5034285;28;20048;-77
2021/11/16 05:03:51;;;;;;;39.38;14.25;;;;;;;2.99;100.00;95843.94;5034001;28;20499;-76
2021/11/16 05:06:17;;;;;;;32.67;12.30;;;;;;;2.90;100.00;95844.22;5030712;28;20052;-76
2021/11/16 05:08:44;;;;;;;38.63;11.98;;;;;;;2.90;100.00;95841.63;5034413;28;20045;-77
2021/11/16 05:11:10;;;;;;;33.40;12.20;;;;;;;2.86;100.00;95840.44;5032399;28;20056;-77
2021/11/16 05:13:38;;;;;;;37.70;13.38;;;;;;;2.86;100.00;95835.25;5032885;28;20033;-76
2021/11/16 05:16:06;;;;;;;33.10;11.63;;;;;;;2.94;100.00;95834.19;5033855;28;20045;-77
2021/11/16 05:18:32;;;;;;;32.47;10.57;;;;;;;2.94;100.00;95835.00;5026855;28;20514;-78
2021/11/16 05:20:59;;;;;;;37.63;12.25;;;;;;;2.95;100.00;95833.97;5033784;28;20064;-77
2021/11/16 05:23:26;;;;;;;33.28;11.10;;;;;;;3.03;100.00;95839.91;5033728;28;20125;-77
2021/11/16 05:25:53;;;;;;;28.63;11.38;;;;;;;3.01;100.00;95841.94;5032915;28;20046;-77
2021/11/16 05:28:21;;;;;;;29.52;11.45;;;;;;;3.01;100.00;95841.94;5031822;28;20046;-77
2021/11/16 05:30:47;;;;;;;36.75;10.82;;;;;;;2.93;100.00;95846.41;5033434;28;20049;-77
2021/11/16 05:33:12;;;;;;;27.33;10.43;;;;;;;3.00;100.00;95848.13;5027170;28;20046;-77
2021/11/16 05:35:38;;;;;;;30.45;11.23;;;;;;;2.95;100.00;95859.97;5031520;28;20041;-76
2021/11/16 05:38:04;;;;;;;33.15;11.38;;;;;;;3.02;100.00;95859.13;5031541;28;20522;-77
2021/11/16 05:40:31;;;;;;;33.67;10.95;;;;;;;2.80;100.00;95851.69;5015274;28;20096;-77
2021/11/16 05:42:57;;;;;;;30.92;12.02;;;;;;;2.92;100.00;95855.19;5031345;28;20034;-77
2021/11/16 05:45:23;;;;;;;30.52;10.23;;;;;;;2.93;100.00;95862.00;5032581;28;20053;-76
2021/11/16 05:47:52;;;;;;;30.77;10.82;;;;;;;3.03;100.00;95865.91;5047663;28;20050;-76
2021/11/16 05:50:19;;;;;;;28.27;10.38;;;;;;;3.08;100.00;95868.69;5013933;28;20061;-77
2021/11/16 05:52:44;;;;;;;29.58;10.88;;;;;;;2.94;100.00;95868.78;5027735;28;20049;-76
2021/11/16 05:55:10;;;;;;;27.85;10.55;;;;;;;2.84;100.00;95850.25;5026168;28;20053;-77
2021/11/16 05:57:36;;;;;;;32.08;10.88;;;;;;;2.89;100.00;95850.41;5028790;28;20034;-76
2021/11/16 06:00:06;;;;;;;33.08;11.27;;;;;;;3.05;100.00;95853.50;5032316;28;20038;-77
2021/11/16 06:02:32;;;;;;;32.80;11.23;;;;;;;2.95;100.00;95854.75;5031867;28;20080;-77
2021/11/16 06:04:57;;;;;;;33.92;12.48;;;;;;;2.88;100.00;95856.63;5031610;28;20116;-77
2021/11/16 06:07:23;;;;;;;32.75;10.93;;;;;;;2.97;100.00;95857.16;5030344;28;20098;-76
2021/11/16 06:09:48;;;;;;;33.47;11.18;;;;;;;2.85;100.00;95854.44;5033200;28;20045;-77
2021/11/16 06:12:14;;;;;;;33.20;12.02;;;;;;;2.87;100.00;95852.41;5032029;28;20045;-77
2021/11/16 06:14:39;;;;;;;31.48;11.10;;;;;;;2.89;100.00;95858.22;5033042;28;20419;-77
2021/11/16 06:17:06;;;;;;;29.50;10.02;;;;;;;2.97;100.00;95858.97;5029502;28;20056;-76
2021/11/16 06:19:35;;;;;;;28.83;10.20;;;;;;;2.73;100.00;95861.31;5032598;28;20041;-77
2021/11/16 06:22:02;;;;;;;26.95;10.23;;;;;;;2.83;100.00;95856.47;5031648;28;20057;-77
2021/11/16 06:24:27;;;;;;;25.25;8.93;;;;;;;2.92;100.00;95860.41;5030047;28;20033;-77
2021/11/16 06:26:53;;;;;;;23.73;9.38;;;;;;;2.87;100.00;95865.41;5030577;28;20037;-77
2021/11/16 06:29:19;;;;;;;27.17;10.50;;;;;;;2.81;100.00;95858.47;5046518;28;20054;-76
2021/11/16 06:31:44;;;;;;;28.85;10.43;;;;;;;2.87;100.00;95859.44;5032571;28;20041;-77
2021/11/16 06:34:11;;;;;;;26.95;9.43;;;;;;;2.92;100.00;95860.41;5031837;28;20041;-76
2021/11/16 06:36:41;;;;;;;28.10;10.10;;;;;;;2.81;100.00;95863.69;5029117;28;20392;-76
2021/11/16 06:39:18;;;;;;;25.08;9.02;;;;;;;2.88;100.00;95859.22;5018942;28;20038;-77
2021/11/16 06:41:47;;;;;;;27.13;9.35;;;;;;;2.88;100.00;95871.44;5028706;28;20041;-77
2021/11/16 06:44:14;;;;;;;23.40;8.50;;;;;;;2.87;100.00;95869.84;5031431;28;20533;-77
2021/11/16 06:46:41;;;;;;;24.40;8.68;;;;;;;2.83;100.00;95869.47;5030703;28;20046;-77
2021/11/16 06:49:09;;;;;;;20.33;8.07;;;;;;;2.79;100.00;95863.09;5030434;28;20071;-76
2021/11/16 06:51:39;;;;;;;22.55;8.82;;;;;;;2.75;100.00;95869.72;5030368;28;20510;-77
2021/11/16 06:54:11;;;;;;;19.45;7.63;;;;;;;2.78;100.00;95875.28;5029154;28;20063;-76
2021/11/16 06:56:38;;;;;;;20.70;7.43;;;;;;;2.68;100.00;95863.78;5021724;28;20096;-77
2021/11/16 06:59:05;;;;;;;19.42;7.13;;;;;;;2.65;100.00;95867.59;5026901;28;20037;-77
2021/11/16 07:01:34;;;;;;;18.25;6.95;;;;;;;2.66;100.00;95870.97;5030649;28;20047;-77
2021/11/16 07:04:05;;;;;;;21.58;7.70;;;;;;;2.63;100.00;95871.38;5022750;28;20111;-77
2021/11/16 07:06:31;;;;;;;21.48;7.95;;;;;;;2.63;100.00;95879.19;5042032;28;20046;-75
2021/11/16 07:08:58;;;;;;;19.85;7.25;;;;;;;2.63;100.00;95884.38;5019932;28;20048;-76
2021/11/16 07:11:26;;;;;;;18.15;7.65;;;;;;;2.53;100.00;95888.25;5023782;28;20038;-75
2021/11/16 07:13:59;;;;;;;19.17;7.47;;;;;;;2.58;100.00;95885.81;5021522;28;20072;-75
2021/11/16 07:16:28;;;;;;;18.70;7.65;;;;;;;2.58;100.00;95885.81;5026708;28;20472;-75
2021/11/16 07:18:56;;;;;;;17.88;7.25;;;;;;;2.63;100.00;95892.19;5026184;28;20037;-76
2021/11/16 07:21:25;;;;;;;19.60;7.03;;;;;;;2.60;100.00;95889.00;5026462;28;20048;-76
2021/11/16 07:24:09;;;;;;;18.90;7.20;;;;;;;2.64;100.00;95893.78;5026578;28;20040;-76
2021/11/16 07:26:39;;;;;;;19.65;6.97;;;;;;;2.62;100.00;95898.41;5038137;28;20060;-76
2021/11/16 07:29:11;;;;;;;17.20;7.07;;;;;;;2.65;100.00;95900.59;5039592;28;20518;-75
2021/11/16 07:31:41;;;;;;;16.90;7.38;;;;;;;2.55;100.00;95896.63;5044394;28;20044;-76
2021/11/16 07:34:16;;;;;;;17.17;6.82;;;;;;;2.62;100.00;95895.81;5025398;28;20050;-77
2021/11/16 07:36:52;;;;;;;;;;;;;;;2.61;100.00;95895.00;5030032;28;20041;-77
2021/11/16 07:39:17;;;;;;;18.38;6.75;;;;;;;2.58;100.00;95891.00;5029245;28;19928;-77
2021/11/16 07:41:43;;;;;;;15.48;6.82;;;;;;;2.68;100.00;95890.53;5030956;28;20041;-76
2021/11/16 07:44:13;;;;;;;16.85;7.07;;;;;;;2.68;100.00;95884.56;5028765;28;20406;-76
2021/11/16 07:46:50;;;;;;;19.83;7.85;;;;;;;2.70;100.00;95888.56;5025176;28;20069;-77
2021/11/16 07:49:16;;;;;;;18.35;7.25;;;;;;;2.64;100.00;95893.78;5025013;28;20046;-77
2021/11/16 07:51:42;;;;;;;16.20;7.18;;;;;;;2.62;100.00;95895.81;5024186;28;20049;-76
2021/11/16 07:54:07;;;;;;;18.85;8.02;;;;;;;2.59;100.00;95897.81;5024069;28;20042;-77
2021/11/16 07:56:34;;;;;;;18.52;7.60;;;;;;;2.47;100.00;95907.28;5027921;28;20079;-77
2021/11/16 07:59:05;;;;;;;21.35;7.07;;;;;;;2.63;100.00;95902.56;5024781;28;20049;-76
2021/11/16 08:02:09;;;;;;;17.63;6.85;;;;;;;2.57;100.00;95904.19;5024889;28;20092;-77
2021/11/16 08:04:32;;;;;;;19.55;7.65;;;;;;;2.57;100.00;95918.00;5033421;28;20057;-77
2021/11/16 08:12:32;;;;;;;21.83;8.27;;;;;;;2.79;100.00;95912.50;5029260;28;20076;-77
2021/11/16 08:15:04;;;;;;;20.58;7.82;;;;;;;2.62;100.00;95917.38;5025203;28;20510;-77
2021/11/16 08:17:31;;;;;;;19.70;7.28;;;;;;;2.71;100.00;95904.94;5028961;28;20411;-76
2021/11/16 08:20:00;;;;;;;19.17;8.02;;;;;;;2.62;100.00;95898.41;5024890;28;20045;-77
2021/11/16 08:22:26;;;;;;;18.70;7.47;;;;;;;2.70;100.00;95909.34;5029923;28;20052;-77
2021/11/16 08:24:54;;;;;;;23.63;7.68;;;;;;;2.74;100.00;95909.69;5037710;28;20038;-76
2021/11/16 08:27:35;;;;;;;22.45;8.45;;;;;;;2.73;100.00;95914.13;5029782;28;20760;-76
2021/11/16 08:30:12;;;;;;;20.40;7.35;;;;;;;2.85;100.00;95911.63;5035641;28;20041;-77
2021/11/16 08:32:40;;;;;;;21.48;7.72;;;;;;;2.73;100.00;95924.50;5023535;28;20480;-77
2021/11/16 08:35:12;;;;;;;18.35;7.05;;;;;;;2.58;100.00;95922.19;5031392;28;20045;-76
2021/11/16 08:37:38;;;;;;;19.55;8.05;;;;;;;2.59;100.00;95921.19;5033796;28;20052;-77
2021/11/16 08:40:14;;;;;;;19.13;7.25;;;;;;;2.56;100.00;95919.00;5033183;28;20038;-76
2021/11/16 08:42:42;;;;;;;19.77;8.02;;;;;;;2.65;100.00;95911.75;5033447;28;20049;-76
2021/11/16 08:45:16;;;;;;;20.45;7.72;;;;;;;2.60;100.00;95909.78;5033485;28;20048;-76
2021/11/16 08:47:46;;;;;;;21.02;8.15;;;;;;;2.65;100.00;95910.97;5031898;28;20040;-76
2021/11/16 08:50:18;;;;;;;21.60;8.20;;;;;;;2.56;100.00;95916.41;5034428;28;20526;-77
2021/11/16 08:52:44;;;;;;;21.52;8.35;;;;;;;2.63;100.00;95918.16;5034311;28;20400;-76
2021/11/16 08:55:12;;;;;;;24.75;8.63;;;;;;;2.69;100.00;95906.97;5034734;28;20049;-76
2021/11/16 08:57:45;;;;;;;19.20;6.97;;;;;;;2.88;100.00;95924.22;5034947;28;20048;-77
2021/11/16 09:00:19;;;;;;;19.63;7.88;;;;;;;2.70;100.00;95918.91;5043353;28;20503;-76
2021/11/16 09:02:46;;;;;;;22.02;8.35;;;;;;;2.84;100.00;95919.66;5032788;28;20041;-76
2021/11/16 09:05:14;;;;;;;20.17;8.15;;;;;;;2.99;100.00;95927.94;5031796;28;20053;-77
2021/11/16 09:07:57;;;;;;;23.05;7.60;;;;;;;3.05;100.00;95921.13;5038393;28;20037;-77
2021/11/16 09:10:38;;;;;;;18.73;7.68;;;;;;;2.99;100.00;95921.94;5031819;28;20061;-77
2021/11/16 09:13:06;;;;;;;19.20;7.60;;;;;;;3.06;100.00;95927.88;5024182;28;20419;-76
2021/11/16 09:15:41;;;;;;;19.75;7.63;;;;;;;3.10;100.00;95926.47;5018151;28;20034;-76
2021/11/16 09:18:29;;;;;;;16.63;7.25;;;;;;;3.01;100.00;95930.34;5041127;28;20069;-76
2021/11/16 09:20:58;;;;;;;17.98;7.07;;;;;;;3.04;100.00;95930.69;5020435;28;20053;-77
2021/11/16 09:23:27;;;;;;;17.63;6.72;;;;;;;3.11;100.00;95930.66;5031861;28;20048;-77
2021/11/16 09:26:06;;;;;;;20.23;7.13;;;;;;;3.05;100.00;95921.13;5027333;28;20104;-77
2021/11/16 09:28:34;;;;;;;21.77;8.23;;;;;;;2.89;100.00;95912.81;5031199;28;20046;-77
2021/11/16 09:31:15;;;;;;;20.45;7.57;;;;;;;2.78;100.00;95910.88;5033066;28;20422;-76
2021/11/16 09:33:41;;;;;;;18.55;7.47;;;;;;;2.82;100.00;95917.25;5013482;28;20042;-77
2021/11/16 09:36:08;;;;;;;25.42;8.48;;;;;;;2.75;100.00;95919.09;5046175;28;20521;-77
2021/11/16 09:38:51;;;;;;;19.50;8.13;;;;;;;2.86;100.00;95922.81;5031219;28;20111;-76
2021/11/16 09:41:30;;;;;;;20.75;7.72;;;;;;;2.87;100.00;95924.41;5027776;28;20041;-75
2021/11/16 09:44:05;;;;;;;18.95;7.90;;;;;;;3.00;100.00;95923.53;5031498;28;20113;-76
2021/11/16 09:46:41;;;;;;;23.92;8.32;;;;;;;2.94;100.00;95931.19;5030133;28;20056;-77
2021/11/16 09:49:07;;;;;;;23.70;8.90;;;;;;;2.87;100.00;95925.22;5022145;28;20038;-77
2021/11/16 09:51:33;;;;;;;21.83;7.63;;;;;;;2.98;100.00;95928.16;5032554;28;20046;-76
2021/11/16 09:54:10;;;;;;;23.83;7.80;;;;;;;2.97;100.00;95929.16;5032924;28;20069;-77
2021/11/16 09:56:36;;;;;;;21.73;8.43;;;;;;;2.93;100.00;95924.38;5032934;28;20049;-76
2021/11/16 09:59:05;;;;;;;19.10;7.68;;;;;;;2.97;100.00;95923.97;5030611;28;20526;-76
2021/11/16 10:01:37;;;;;;;21.77;8.02;;;;;;;2.94;100.00;95920.78;5032747;28;20049;-76
2021/11/16 10:04:16;;;;;;;22.58;8.40;;;;;;;2.93;100.00;95921.78;5015312;28;20236;-77
2021/11/16 10:06:42;;;;;;;23.02;8.68;;;;;;;2.89;100.00;95923.22;5028391;28;20065;-76
2021/11/16 10:09:10;;;;;;;22.27;8.38;;;;;;;3.02;100.00;95922.31;5031026;28;20547;-77
2021/11/16 10:11:41;;;;;;;25.77;9.27;;;;;;;2.85;100.00;95911.63;5029292;28;20046;-78
2021/11/16 10:14:13;;;;;;;20.75;8.13;;;;;;;2.85;100.00;95909.03;5028764;28;20048;-78
2021/11/16 10:16:39;;;;;;;23.10;8.93;;;;;;;2.85;100.00;95916.06;5029372;28;20038;-78
2021/11/16 10:19:05;;;;;;;24.45;8.65;;;;;;;2.87;100.00;95912.22;5029661;28;20395;-76
2021/11/16 10:21:33;;;;;;;23.95;8.82;;;;;;;2.90;100.00;95904.00;5028699;28;20048;-76
2021/11/16 10:24:00;;;;;;;23.75;8.57;;;;;;;3.05;100.00;95916.69;5029587;28;20103;-76
2021/11/16 10:26:33;;;;;;;23.70;7.53;;;;;;;3.14;100.00;95914.63;5026065;28;20628;-77
2021/11/16 10:29:00;;;;;;;23.60;8.68;;;;;;;3.06;100.00;95912.28;5028749;28;20033;-77
2021/11/16 10:31:29;;;;;;;24.40;9.13;;;;;;;2.92;100.00;95907.19;5028710;28;20045;-78
2021/11/16 10:33:56;;;;;;;23.58;7.78;;;;;;;2.98;100.00;95900.34;5029855;28;20053;-79
2021/11/16 10:36:22;;;;;;;18.90;8.02;;;;;;;2.94;100.00;95905.19;5027833;28;20095;-77
2021/11/16 10:38:55;;;;;;;22.10;7.75;;;;;;;3.00;100.00;95894.94;5030356;28;20045;-76
2021/11/16 10:41:27;;;;;;;23.13;8.48;;;;;;;2.99;100.00;95907.16;5045193;28;20052;-76
2021/11/16 10:43:57;;;;;;;22.48;8.85;;;;;;;2.94;100.00;95904.38;5016208;28;20399;-76
2021/11/16 10:46:27;;;;;;;24.15;8.90;;;;;;;2.97;100.00;95909.16;5028119;28;20116;-77
2021/11/16 10:48:55;;;;;;;19.48;7.68;;;;;;;2.92;100.00;95902.00;5028453;28;20041;-78
2021/11/16 10:51:28;;;;;;;23.75;8.63;;;;;;;3.05;100.00;95900.31;5030844;28;20045;-77
2021/11/16 10:53:55;;;;;;;21.90;8.38;;;;;;;3.07;100.00;95903.47;5027683;28;20041;-77
2021/11/16 10:56:30;;;;;;;24.70;9.27;;;;;;;3.11;100.00;95894.25;5029620;28;20053;-77
2021/11/16 10:59:13;;;;;;;21.30;8.68;;;;;;;3.11;100.00;95895.03;5027736;28;20045;-76
2021/11/16 11:01:54;;;;;;;21.92;8.07;;;;;;;3.10;100.00;95900.47;5030214;28;20117;-76
2021/11/16 11:04:23;;;;;;;23.80;8.68;;;;;;;3.15;100.00;95892.00;5016906;28;20053;-77
2021/11/16 11:06:50;;;;;;;22.52;8.95;;;;;;;3.14;100.00;95880.03;5026645;28;20492;-76
2021/11/16 11:09:17;;;;;;;20.73;8.57;;;;;;;3.19;100.00;95891.41;5029687;28;20125;-76
2021/11/16 11:11:54;;;;;;;23.60;7.90;;;;;;;3.26;100.00;95892.13;5027375;28;20056;-77
2021/11/16 11:14:34;;;;;;;23.25;8.75;;;;;;;3.19;100.00;95886.19;5025804;28;20057;-76
2021/11/16 11:17:10;;;;;;;24.65;9.10;;;;;;;3.12;100.00;95885.44;5024723;28;20041;-76
2021/11/16 11:19:41;;;;;;;23.02;8.23;;;;;;;3.10;100.00;95892.66;5025428;28;20132;-77
2021/11/16 11:22:33;;;;;;;23.42;8.27;;;;;;;3.05;100.00;95884.72;5018483;28;20054;-76
2021/11/16 11:28:02;;;;;;;19.98;7.80;;;;;;;3.47;100.00;95882.34;5027505;28;20605;-77
2021/11/16 11:30:32;;;;;;;24.05;8.05;;;;;;;3.37;100.00;95876.84;5019757;28;20683;-77
2021/11/16 11:32:58;;;;;;;19.70;7.63;;;;;;;3.42;100.00;95874.38;5026601;28;20049;-76
2021/11/16 11:35:27;;;;;;;24.15;9.63;;;;;;;3.08;100.00;95873.88;5026182;28;20510;-76
2021/11/16 11:37:55;;;;;;;28.02;9.55;;;;;;;3.13;100.00;95866.22;5015604;28;20042;-76
2021/11/16 11:40:28;;;;;;;27.80;9.52;;;;;;;3.05;100.00;95869.91;5025236;28;20138;-77
2021/11/16 11:42:59;;;;;;;22.80;8.88;;;;;;;3.19;100.00;95865.38;5026924;28;20038;-76
2021/11/16 11:45:33;;;;;;;24.50;7.90;;;;;;;3.08;100.00;95868.69;5026198;28;20041;-77
2021/11/16 11:47:59;;;;;;;25.10;8.73;;;;;;;3.00;100.00;95866.34;5026450;28;20049;-77
2021/11/16 11:50:45;;;;;;;22.85;8.80;;;;;;;2.94;100.00;95861.00;5021855;28;20104;-76
2021/11/16 11:53:41;;;;;;;25.23;8.30;;;;;;;3.04;100.00;95857.91;5026655;28;20099;-75